createdAt,value
2023-01-29T00:01:42.349Z,9.83
2023-01-29T00:04:03.763Z,9.50
2023-01-29T00:06:24.826Z,9.27
2023-01-29T00:08:46.847Z,9.37
2023-01-29T00:11:09.019Z,10.13
2023-01-29T00:13:31.554Z,9.03
2023-01-29T00:15:56.650Z,9.37
2023-01-29T00:18:17.820Z,9.07
2023-01-29T00:20:39.453Z,9.53
2023-01-29T00:23:00.800Z,9.53
2023-01-29T00:25:22.025Z,9.17
2023-01-29T00:27:43.817Z,9.17
2023-01-29T00:30:16.470Z,9.43
2023-01-29T00:32:37.761Z,9.70
2023-01-29T00:34:59.107Z,9.87
2023-01-29T00:37:20.505Z,9.80
2023-01-29T00:39:47.800Z,10.70
2023-01-29T00:42:27.236Z,10.73
2023-01-29T00:45:00.923Z,10.73
2023-01-29T00:47:33.325Z,10.57
2023-01-29T00:49:54.648Z,10.80
2023-01-29T00:52:24.977Z,10.90
2023-01-29T00:54:46.417Z,10.60
2023-01-29T00:57:07.804Z,10.50
2023-01-29T00:59:29.281Z,10.83
2023-01-29T01:02:08.293Z,11.07
2023-01-29T01:04:31.947Z,10.43
2023-01-29T01:06:54.025Z,11.90
2023-01-29T01:09:32.973Z,11.30
2023-01-29T01:11:54.497Z,10.40
2023-01-29T01:14:16.196Z,11.17
2023-01-29T01:16:37.578Z,12.07
2023-01-29T01:18:59.090Z,11.17
2023-01-29T01:21:22.006Z,11.10
2023-01-29T01:23:43.292Z,11.63
2023-01-29T01:26:09.240Z,11.63
2023-01-29T01:28:30.615Z,12.50
2023-01-29T01:30:51.883Z,11.90
2023-01-29T01:33:13.266Z,12.17
2023-01-29T01:35:34.696Z,12.77
2023-01-29T01:37:57.427Z,12.20
2023-01-29T01:40:20.203Z,12.47
2023-01-29T01:42:41.130Z,12.27
2023-01-29T01:45:05.391Z,12.93
2023-01-29T01:47:31.069Z,12.97
2023-01-29T01:49:52.608Z,12.93
2023-01-29T01:52:15.235Z,13.70
2023-01-29T01:54:37.978Z,13.57
2023-01-29T01:57:09.104Z,13.80
2023-01-29T01:59:30.512Z,14.43
2023-01-29T02:01:54.979Z,13.60
2023-01-29T02:04:34.570Z,12.73
2023-01-29T02:07:14.523Z,13.63
2023-01-29T02:09:37.846Z,13.47
2023-01-29T02:12:00.400Z,13.83
2023-01-29T02:14:22.202Z,12.90
2023-01-29T02:16:43.364Z,13.50
2023-01-29T02:19:05.945Z,12.83
2023-01-29T02:21:39.306Z,13.30
2023-01-29T02:24:23.842Z,13.40
2023-01-29T02:26:51.104Z,13.03
2023-01-29T02:29:25.146Z,13.80
2023-01-29T02:31:48.276Z,13.93
2023-01-29T02:34:11.718Z,13.57
2023-01-29T02:36:35.695Z,13.43
2023-01-29T02:39:01.032Z,12.87
2023-01-29T02:41:27.164Z,12.93
2023-01-29T02:43:49.283Z,13.23
2023-01-29T02:46:16.812Z,12.40
2023-01-29T02:48:41.260Z,12.87
2023-01-29T02:51:04.158Z,13.83
2023-01-29T02:53:28.680Z,12.67
2023-01-29T02:55:53.357Z,12.90
2023-01-29T02:58:18.121Z,13.93
2023-01-29T03:00:40.566Z,14.20
2023-01-29T03:03:05.229Z,13.37
2023-01-29T03:05:28.550Z,13.03
2023-01-29T03:07:52.059Z,12.63
2023-01-29T03:10:16.977Z,13.30
2023-01-29T03:12:40.047Z,12.10
2023-01-29T03:15:16.697Z,11.50
2023-01-29T03:17:39.982Z,11.33
2023-01-29T03:20:03.693Z,10.73
2023-01-29T03:22:25.307Z,12.33
2023-01-29T03:25:06.374Z,12.47
2023-01-29T03:27:46.110Z,11.60
2023-01-29T03:30:26.551Z,11.83
2023-01-29T03:32:49.482Z,11.00
2023-01-29T03:35:14.161Z,10.47
2023-01-29T03:37:37.528Z,10.43
2023-01-29T03:39:58.494Z,10.77
2023-01-29T03:42:21.950Z,12.23
2023-01-29T03:44:49.095Z,10.70
2023-01-29T03:47:15.777Z,10.47
2023-01-29T03:49:43.090Z,10.70
2023-01-29T03:52:09.822Z,10.80
2023-01-29T03:54:37.300Z,10.73
2023-01-29T03:57:01.276Z,10.60
2023-01-29T03:59:24.489Z,10.87
2023-01-29T04:01:48.774Z,11.40
2023-01-29T04:04:12.866Z,11.97
2023-01-29T04:06:35.211Z,11.90
2023-01-29T04:08:59.593Z,10.77
2023-01-29T04:11:21.849Z,10.80
2023-01-29T04:13:43.799Z,10.83
2023-01-29T04:16:07.341Z,10.63
2023-01-29T04:18:28.869Z,10.07
2023-01-29T04:20:50.194Z,10.67
2023-01-29T04:23:20.779Z,10.07
2023-01-29T04:25:45.840Z,10.70
2023-01-29T04:28:09.003Z,10.23
2023-01-29T04:30:34.637Z,10.97
2023-01-29T04:33:02.510Z,10.63
2023-01-29T04:35:28.724Z,10.50
2023-01-29T04:37:53.481Z,11.00
2023-01-29T04:40:21.208Z,11.03
2023-01-29T04:42:47.107Z,11.33
2023-01-29T04:45:13.003Z,11.17
2023-01-29T04:47:36.285Z,11.03
2023-01-29T04:50:01.127Z,11.27
2023-01-29T04:52:25.392Z,11.80
2023-01-29T04:54:56.214Z,11.03
2023-01-29T04:57:25.566Z,12.37
2023-01-29T04:59:49.308Z,10.80
2023-01-29T05:02:11.750Z,10.50
2023-01-29T05:04:34.509Z,11.07
2023-01-29T05:06:56.759Z,11.17
2023-01-29T05:09:18.281Z,10.10
2023-01-29T05:11:39.393Z,10.83
2023-01-29T05:14:03.614Z,9.70
2023-01-29T05:16:28.980Z,10.80
2023-01-29T05:18:50.594Z,10.87
2023-01-29T05:21:11.769Z,11.20
2023-01-29T05:23:33.373Z,10.10
2023-01-29T05:25:54.594Z,10.37
2023-01-29T05:28:16.924Z,10.37
2023-01-29T05:30:39.966Z,9.67
2023-01-29T05:33:04.076Z,9.93
2023-01-29T05:35:25.307Z,10.13
2023-01-29T05:37:46.776Z,10.30
2023-01-29T05:40:09.695Z,10.43
2023-01-29T05:42:30.787Z,11.30
2023-01-29T05:44:52.337Z,11.03
2023-01-29T05:47:13.836Z,9.77
2023-01-29T05:49:38.691Z,10.47
2023-01-29T05:51:59.965Z,10.20
2023-01-29T05:54:21.250Z,10.23
2023-01-29T05:56:42.753Z,9.80
2023-01-29T05:59:03.773Z,9.37
2023-01-29T06:01:26.789Z,10.17
2023-01-29T06:03:48.579Z,9.90
2023-01-29T06:06:11.860Z,10.47
2023-01-29T06:08:32.921Z,10.10
2023-01-29T06:10:54.283Z,10.10
2023-01-29T06:13:15.720Z,9.37
2023-01-29T06:15:37.188Z,9.03
2023-01-29T06:17:58.663Z,10.70
2023-01-29T06:20:20.035Z,10.07
2023-01-29T06:22:42.680Z,10.33
2023-01-29T06:25:04.019Z,10.53
2023-01-29T06:27:25.203Z,10.20
2023-01-29T06:29:46.626Z,11.27
2023-01-29T06:32:08.065Z,12.73
2023-01-29T06:34:29.409Z,12.57
2023-01-29T06:36:50.891Z,11.93
2023-01-29T06:39:13.754Z,11.97
2023-01-29T06:41:35.628Z,11.00
2023-01-29T06:43:57.150Z,10.63
2023-01-29T06:46:18.673Z,10.63
2023-01-29T06:48:40.014Z,11.40
2023-01-29T06:51:03.202Z,10.90
2023-01-29T06:53:24.951Z,10.57
2023-01-29T06:55:53.874Z,10.43
2023-01-29T06:58:15.368Z,11.30
2023-01-29T07:00:37.098Z,12.27
2023-01-29T07:02:58.965Z,11.27
2023-01-29T07:05:20.362Z,10.47
2023-01-29T07:07:41.740Z,10.33
2023-01-29T07:10:03.014Z,10.40
2023-01-29T07:12:25.651Z,12.63
2023-01-29T07:14:47.165Z,11.07
2023-01-29T07:17:08.246Z,11.57
2023-01-29T07:19:30.550Z,11.67
2023-01-29T07:21:51.892Z,13.17
2023-01-29T07:24:13.123Z,11.87
2023-01-29T07:26:34.237Z,12.03
2023-01-29T07:28:57.193Z,11.80
2023-01-29T07:31:18.876Z,11.17
2023-01-29T07:33:40.314Z,12.13
2023-01-29T07:36:01.766Z,12.60
2023-01-29T07:38:23.537Z,11.83
2023-01-29T07:40:44.631Z,11.80
2023-01-29T07:43:07.489Z,12.40
2023-01-29T07:45:30.251Z,13.00
2023-01-29T07:47:53.066Z,11.53
2023-01-29T07:50:14.401Z,12.13
2023-01-29T07:52:35.812Z,11.20
2023-01-29T07:54:57.509Z,11.73
2023-01-29T07:57:18.838Z,11.97
2023-01-29T07:59:40.172Z,15.27
2023-01-29T08:02:03.232Z,12.30
2023-01-29T08:04:24.630Z,12.23
2023-01-29T08:06:45.758Z,13.43
2023-01-29T08:09:07.482Z,12.67
2023-01-29T08:11:28.733Z,14.13
2023-01-29T08:13:49.969Z,14.57
2023-01-29T08:16:11.439Z,12.10
2023-01-29T08:18:34.260Z,15.20
2023-01-29T08:20:59.789Z,11.80
2023-01-29T08:23:20.833Z,11.73
2023-01-29T08:25:42.331Z,12.30
2023-01-29T08:28:03.745Z,32.03
2023-01-29T08:30:25.461Z,15.50
2023-01-29T08:32:46.614Z,11.87
2023-01-29T08:35:10.062Z,11.47
2023-01-29T08:37:31.380Z,11.03
2023-01-29T08:39:52.656Z,11.23
2023-01-29T08:42:13.932Z,11.57
2023-01-29T08:44:35.453Z,11.80
2023-01-29T08:46:56.717Z,13.57
2023-01-29T08:49:18.052Z,17.83
2023-01-29T08:51:40.708Z,12.53
2023-01-29T08:54:02.008Z,11.13
2023-01-29T08:56:23.650Z,11.17
2023-01-29T08:58:44.712Z,10.90
2023-01-29T09:01:09.609Z,12.00
2023-01-29T09:03:31.008Z,12.03
2023-01-29T09:05:52.348Z,11.17
2023-01-29T09:08:15.544Z,11.40
2023-01-29T09:10:37.113Z,12.10
2023-01-29T09:12:58.483Z,11.13
2023-01-29T09:15:19.781Z,12.57
2023-01-29T09:17:41.035Z,11.00
2023-01-29T09:20:02.579Z,12.53
2023-01-29T09:22:23.832Z,11.10
2023-01-29T09:24:47.425Z,11.40
2023-01-29T09:27:10.097Z,12.00
2023-01-29T09:29:31.342Z,11.90
2023-01-29T09:31:53.114Z,12.17
2023-01-29T09:34:14.547Z,12.30
2023-01-29T09:36:35.945Z,11.90
2023-01-29T09:38:57.391Z,12.03
2023-01-29T09:41:28.360Z,12.20
2023-01-29T09:43:52.517Z,12.60
2023-01-29T09:46:22.359Z,14.47
2023-01-29T09:48:44.002Z,12.77
2023-01-29T09:51:07.273Z,12.40
2023-01-29T09:53:32.625Z,11.20
2023-01-29T09:55:55.304Z,10.73
2023-01-29T09:58:20.386Z,12.77
2023-01-29T10:00:44.728Z,13.20
2023-01-29T10:03:12.136Z,19.10
2023-01-29T10:05:40.644Z,13.03
2023-01-29T10:08:13.701Z,13.57
2023-01-29T10:10:41.041Z,11.40
2023-01-29T10:13:05.321Z,11.60
2023-01-29T10:15:34.973Z,11.77
2023-01-29T10:18:05.016Z,11.70
2023-01-29T10:20:35.240Z,11.90
2023-01-29T10:23:01.952Z,11.67
2023-01-29T10:25:23.951Z,12.00
2023-01-29T10:27:48.611Z,11.97
2023-01-29T10:30:21.157Z,13.07
2023-01-29T10:32:44.464Z,12.93
2023-01-29T10:35:06.826Z,10.50
2023-01-29T10:37:33.679Z,11.03
2023-01-29T10:39:54.763Z,12.20
2023-01-29T10:42:20.082Z,12.00
2023-01-29T10:44:47.038Z,12.43
2023-01-29T10:47:13.264Z,11.70
2023-01-29T10:49:53.603Z,17.67
2023-01-29T10:52:22.746Z,17.63
2023-01-29T10:54:51.115Z,11.70
2023-01-29T10:57:16.054Z,10.77
2023-01-29T10:59:43.504Z,10.90
2023-01-29T11:02:13.745Z,10.13
2023-01-29T11:04:35.994Z,9.90
2023-01-29T11:06:59.388Z,11.37
2023-01-29T11:09:25.817Z,11.57
2023-01-29T11:11:48.872Z,12.67
2023-01-29T11:14:13.348Z,10.23
2023-01-29T11:16:41.842Z,9.87
2023-01-29T11:19:03.119Z,9.70
2023-01-29T11:21:24.536Z,9.93
2023-01-29T11:23:47.239Z,9.33
2023-01-29T11:26:11.062Z,9.30
2023-01-29T11:28:36.576Z,10.77
2023-01-29T11:30:58.670Z,10.43
2023-01-29T11:33:20.700Z,10.70
2023-01-29T11:35:42.698Z,11.80
2023-01-29T11:38:19.397Z,11.23
2023-01-29T11:40:41.985Z,10.30
2023-01-29T11:43:13.870Z,11.20
2023-01-29T11:45:39.287Z,11.00
2023-01-29T11:48:00.768Z,11.47
2023-01-29T11:50:24.246Z,10.50
2023-01-29T11:52:45.478Z,10.83
2023-01-29T11:55:08.395Z,11.33
2023-01-29T11:57:34.085Z,11.70
2023-01-29T11:59:55.951Z,11.80
2023-01-29T12:02:35.557Z,12.37
2023-01-29T12:04:57.409Z,12.23
2023-01-29T12:07:19.886Z,11.50
2023-01-29T12:09:41.746Z,11.30
2023-01-29T12:12:18.285Z,12.30
2023-01-29T12:14:40.973Z,12.00
2023-01-29T12:17:05.972Z,14.33
2023-01-29T12:19:29.550Z,12.17
2023-01-29T12:21:52.786Z,11.77
2023-01-29T12:24:21.116Z,12.97
2023-01-29T12:26:46.772Z,11.73
2023-01-29T12:29:21.340Z,12.30
2023-01-29T12:31:45.601Z,11.90
2023-01-29T12:34:12.053Z,11.47
2023-01-29T12:36:36.101Z,15.20
2023-01-29T12:38:59.015Z,11.83
2023-01-29T12:41:25.576Z,12.03
2023-01-29T12:43:49.011Z,11.77
2023-01-29T12:46:14.299Z,12.40
2023-01-29T12:48:39.223Z,16.17
2023-01-29T12:51:02.714Z,10.30
2023-01-29T12:53:27.576Z,9.87
2023-01-29T12:55:55.345Z,9.67
2023-01-29T12:58:17.557Z,12.23
2023-01-29T13:00:41.244Z,29.40
2023-01-29T13:03:05.670Z,20.23
2023-01-29T13:05:30.017Z,8.73
2023-01-29T13:07:54.438Z,8.30
2023-01-29T13:10:17.198Z,8.77
2023-01-29T13:12:40.789Z,10.57
2023-01-29T13:15:05.346Z,19.00
2023-01-29T13:17:29.264Z,7.63
2023-01-29T13:19:51.460Z,6.93
2023-01-29T13:22:17.573Z,7.77
2023-01-29T13:24:41.708Z,9.07
2023-01-29T13:27:04.824Z,9.77
2023-01-29T13:29:27.657Z,8.93
2023-01-29T13:31:49.489Z,8.03
2023-01-29T13:34:14.773Z,7.53
2023-01-29T13:36:38.159Z,7.47
2023-01-29T13:39:06.018Z,8.07
2023-01-29T13:41:32.967Z,8.23
2023-01-29T13:43:54.413Z,7.50
2023-01-29T13:46:17.853Z,7.50
2023-01-29T13:48:43.388Z,8.10
2023-01-29T13:51:05.585Z,8.50
2023-01-29T13:53:28.176Z,7.80
2023-01-29T13:55:50.979Z,7.67
2023-01-29T13:58:16.483Z,7.50
2023-01-29T14:00:59.293Z,6.93
2023-01-29T14:04:09.997Z,8.00
2023-01-29T14:06:48.496Z,6.70
2023-01-29T14:09:24.401Z,7.37
2023-01-29T14:11:50.047Z,7.13
2023-01-29T14:14:26.260Z,7.20
2023-01-29T14:16:47.289Z,6.67
2023-01-29T14:19:18.937Z,7.83
2023-01-29T14:21:40.128Z,7.27
2023-01-29T14:24:09.758Z,7.37
2023-01-29T14:26:32.224Z,7.23
2023-01-29T14:28:57.477Z,8.10
2023-01-29T14:31:28.687Z,7.77
2023-01-29T14:33:51.903Z,7.90
2023-01-29T14:36:14.307Z,9.67
2023-01-29T14:38:36.244Z,7.70
2023-01-29T14:41:05.870Z,6.90
2023-01-29T14:43:27.176Z,7.23
2023-01-29T14:45:50.302Z,6.80
2023-01-29T14:48:21.178Z,25.97
2023-01-29T14:50:53.060Z,8.77
2023-01-29T14:53:16.653Z,7.90
2023-01-29T14:55:39.032Z,19.77
2023-01-29T14:58:00.303Z,9.47
2023-01-29T15:00:23.839Z,7.63
2023-01-29T15:02:46.594Z,8.73
2023-01-29T15:05:09.130Z,8.10
2023-01-29T15:07:33.168Z,8.17
2023-01-29T15:10:13.215Z,10.07
2023-01-29T15:12:43.533Z,8.17
2023-01-29T15:15:06.985Z,8.17
2023-01-29T15:17:29.722Z,8.80
2023-01-29T15:19:52.169Z,9.93
2023-01-29T15:22:14.291Z,8.70
2023-01-29T15:24:35.374Z,8.30
2023-01-29T15:26:56.738Z,10.03
2023-01-29T15:29:23.264Z,7.17
2023-01-29T15:31:47.065Z,8.80
2023-01-29T15:34:09.697Z,10.03
2023-01-29T15:36:32.765Z,10.00
2023-01-29T15:39:08.322Z,16.20
2023-01-29T15:41:29.407Z,8.20
2023-01-29T15:43:52.065Z,8.50
2023-01-29T15:46:19.152Z,13.70
2023-01-29T15:48:42.053Z,14.03
2023-01-29T15:51:05.104Z,12.20
2023-01-29T15:53:30.072Z,21.50
2023-01-29T15:55:51.929Z,24.33
2023-01-29T15:58:16.108Z,34.83
2023-01-29T16:00:37.282Z,55.03
2023-01-29T16:03:00.650Z,33.53
2023-01-29T16:05:23.853Z,32.27
2023-01-29T16:07:45.160Z,33.40
2023-01-29T16:10:08.979Z,34.80
2023-01-29T16:12:30.216Z,20.30
2023-01-29T16:14:52.423Z,17.93
2023-01-29T16:17:23.765Z,36.23
2023-01-29T16:19:44.924Z,16.27
2023-01-29T16:22:07.002Z,12.40
2023-01-29T16:24:28.554Z,18.47
2023-01-29T16:26:52.263Z,25.87
2023-01-29T16:29:14.180Z,15.83
2023-01-29T16:31:36.792Z,15.37
2023-01-29T16:33:58.848Z,19.37
2023-01-29T16:36:21.708Z,16.53
2023-01-29T16:38:44.410Z,22.07
2023-01-29T16:41:07.321Z,16.03
2023-01-29T16:43:50.126Z,15.23
2023-01-29T16:46:18.656Z,13.20
2023-01-29T16:48:40.146Z,12.10
2023-01-29T16:51:05.375Z,13.47
2023-01-29T16:53:27.480Z,12.13
2023-01-29T16:55:49.825Z,13.07
2023-01-29T16:58:14.040Z,12.70
2023-01-29T17:00:36.892Z,16.33
2023-01-29T17:03:01.097Z,13.37
2023-01-29T17:05:23.484Z,13.77
2023-01-29T17:07:45.832Z,12.83
2023-01-29T17:10:08.180Z,13.57
2023-01-29T17:12:30.407Z,15.97
2023-01-29T17:14:56.017Z,14.47
2023-01-29T17:17:19.743Z,15.93
2023-01-29T17:19:40.740Z,14.90
2023-01-29T17:22:05.846Z,13.57
2023-01-29T17:24:27.115Z,16.30
2023-01-29T17:26:48.279Z,16.83
2023-01-29T17:29:11.618Z,16.30
2023-01-29T17:31:32.835Z,16.17
2023-01-29T17:33:55.452Z,16.77
2023-01-29T17:36:17.596Z,14.60
2023-01-29T17:38:38.881Z,14.60
2023-01-29T17:41:03.191Z,16.00
2023-01-29T17:43:24.598Z,19.37
2023-01-29T17:45:46.084Z,16.10
2023-01-29T17:48:12.719Z,15.60
2023-01-29T17:50:36.194Z,14.50
2023-01-29T17:52:57.711Z,14.93
2023-01-29T17:55:19.345Z,16.23
2023-01-29T17:57:40.503Z,16.00
2023-01-29T18:00:01.826Z,15.17
2023-01-29T18:02:29.648Z,16.07
2023-01-29T18:04:51.098Z,15.53
2023-01-29T18:07:13.974Z,14.93
2023-01-29T18:09:35.874Z,15.27
2023-01-29T18:11:57.378Z,14.07
2023-01-29T18:14:18.668Z,13.53
2023-01-29T18:16:40.119Z,13.03
2023-01-29T18:19:02.250Z,13.00
2023-01-29T18:21:23.794Z,14.30
2023-01-29T18:23:46.185Z,14.60
2023-01-29T18:26:07.769Z,14.23
2023-01-29T18:28:28.769Z,20.03
2023-01-29T18:30:50.082Z,15.50
2023-01-29T18:33:11.642Z,16.73
2023-01-29T18:35:32.860Z,17.93
2023-01-29T18:37:55.005Z,17.53
2023-01-29T18:40:18.213Z,19.00
2023-01-29T18:42:39.179Z,16.93
2023-01-29T18:45:00.515Z,19.93
2023-01-29T18:47:22.353Z,18.93
2023-01-29T18:49:43.656Z,17.53
2023-01-29T18:52:04.965Z,20.97
2023-01-29T18:54:27.046Z,22.33
2023-01-29T18:57:08.783Z,21.77
2023-01-29T18:59:31.229Z,20.87
2023-01-29T19:01:52.689Z,22.80
2023-01-29T19:04:14.190Z,23.57
2023-01-29T19:06:37.157Z,24.30
2023-01-29T19:08:59.388Z,20.47
2023-01-29T19:11:20.896Z,23.93
2023-01-29T19:13:43.606Z,21.20
2023-01-29T19:16:07.324Z,22.43
2023-01-29T19:18:28.507Z,21.20
2023-01-29T19:20:50.060Z,24.73
2023-01-29T19:23:11.428Z,22.10
2023-01-29T19:25:32.857Z,22.17
2023-01-29T19:27:54.044Z,24.17
2023-01-29T19:30:17.326Z,25.60
2023-01-29T19:32:38.741Z,24.10
2023-01-29T19:34:59.746Z,22.90
2023-01-29T19:37:21.158Z,26.80
2023-01-29T19:39:42.479Z,25.93
2023-01-29T19:42:04.328Z,27.37
2023-01-29T19:44:25.533Z,26.80
2023-01-29T19:46:49.322Z,30.67
2023-01-29T19:49:10.779Z,29.20
2023-01-29T19:51:32.461Z,24.97
2023-01-29T19:53:53.822Z,24.67
2023-01-29T19:56:16.383Z,26.63
2023-01-29T19:58:37.689Z,24.60
2023-01-29T20:01:00.506Z,23.27
2023-01-29T20:03:23.457Z,25.13
2023-01-29T20:05:44.783Z,26.30
2023-01-29T20:08:06.431Z,29.37
2023-01-29T20:10:28.032Z,26.93
2023-01-29T20:12:49.371Z,25.43
2023-01-29T20:15:11.174Z,27.70
2023-01-29T20:17:32.710Z,27.83
2023-01-29T20:19:55.125Z,24.87
2023-01-29T20:22:16.542Z,25.67
2023-01-29T20:24:42.073Z,28.23
2023-01-29T20:27:03.436Z,28.13
2023-01-29T20:29:24.713Z,24.37
2023-01-29T20:31:46.040Z,27.60
2023-01-29T20:34:07.381Z,25.93
2023-01-29T20:36:30.651Z,23.80
2023-01-29T20:38:51.902Z,28.70
2023-01-29T20:41:14.514Z,22.03
2023-01-29T20:43:35.984Z,26.10
2023-01-29T20:45:57.832Z,26.13
2023-01-29T20:48:18.946Z,28.20
2023-01-29T20:50:40.310Z,30.10
2023-01-29T20:53:03.139Z,24.77
2023-01-29T20:55:24.661Z,25.63
2023-01-29T20:57:46.318Z,27.50
2023-01-29T21:00:27.354Z,31.20
2023-01-29T21:02:48.633Z,27.43
2023-01-29T21:05:10.160Z,28.43
2023-01-29T21:07:31.248Z,27.93
2023-01-29T21:09:53.908Z,30.00
2023-01-29T21:12:14.950Z,31.20
2023-01-29T21:14:36.281Z,30.30
2023-01-29T21:16:57.561Z,28.23
2023-01-29T21:19:18.930Z,26.90
2023-01-29T21:21:40.147Z,28.57
2023-01-29T21:24:01.554Z,25.83
2023-01-29T21:26:24.398Z,25.43
2023-01-29T21:28:45.985Z,24.07
2023-01-29T21:31:08.024Z,30.70
2023-01-29T21:33:29.475Z,32.47
2023-01-29T21:35:57.912Z,34.37
2023-01-29T21:38:18.829Z,31.93
2023-01-29T21:40:40.147Z,32.80
2023-01-29T21:43:15.490Z,32.63
2023-01-29T21:45:37.253Z,31.70
2023-01-29T21:47:58.513Z,30.53
2023-01-29T21:50:20.261Z,31.53
2023-01-29T21:52:41.690Z,31.10
2023-01-29T21:55:03.638Z,30.63
2023-01-29T21:57:26.509Z,30.67
2023-01-29T21:59:53.298Z,27.47
2023-01-29T22:02:15.686Z,29.53
2023-01-29T22:04:37.050Z,31.70
2023-01-29T22:06:58.477Z,32.27
2023-01-29T22:09:20.326Z,34.47
2023-01-29T22:11:42.048Z,30.40
2023-01-29T22:14:03.088Z,29.97
2023-01-29T22:16:25.947Z,29.37
2023-01-29T22:18:47.856Z,28.50
2023-01-29T22:21:08.814Z,30.20
2023-01-29T22:23:30.541Z,27.27
2023-01-29T22:25:51.718Z,29.13
2023-01-29T22:28:13.012Z,28.67
2023-01-29T22:30:34.382Z,30.77
2023-01-29T22:32:57.075Z,26.53
2023-01-29T22:35:18.513Z,30.00
2023-01-29T22:37:39.502Z,28.43
2023-01-29T22:40:00.846Z,28.70
2023-01-29T22:42:22.143Z,25.70
2023-01-29T22:44:43.722Z,31.50
2023-01-29T22:47:05.096Z,28.33
2023-01-29T22:49:30.160Z,25.97
2023-01-29T22:52:09.827Z,27.93
2023-01-29T22:54:31.781Z,25.93
2023-01-29T22:56:52.940Z,27.30
2023-01-29T22:59:13.986Z,26.33
2023-01-29T23:01:35.322Z,25.47
2023-01-29T23:03:56.760Z,25.53
2023-01-29T23:06:21.792Z,26.87
2023-01-29T23:08:43.128Z,28.93
2023-01-29T23:11:14.292Z,26.33
2023-01-29T23:13:35.875Z,28.77
2023-01-29T23:16:00.402Z,25.20
2023-01-29T23:18:21.579Z,27.60
2023-01-29T23:20:44.228Z,28.73
2023-01-29T23:23:06.752Z,28.10
2023-01-29T23:25:48.760Z,30.27
2023-01-29T23:28:08.952Z,27.07
2023-01-29T23:30:30.389Z,28.50
2023-01-29T23:32:51.675Z,27.00
2023-01-29T23:35:13.191Z,30.27
2023-01-29T23:37:34.577Z,26.80
2023-01-29T23:39:56.874Z,53.33
2023-01-29T23:42:18.268Z,40.30
2023-01-29T23:44:40.322Z,35.57
2023-01-29T23:47:01.503Z,42.37
2023-01-29T23:49:23.189Z,52.33
2023-01-29T23:51:45.784Z,28.23
2023-01-29T23:54:07.462Z,35.47
2023-01-29T23:56:29.857Z,28.90
2023-01-29T23:58:53.764Z,29.73
